createdAt,value
2019-04-21T00:00:58.638Z,6.61
2019-04-21T00:03:33.357Z,6.63
2019-04-21T00:06:25.415Z,6.68
2019-04-21T00:08:56.556Z,6.76
2019-04-21T00:11:29.821Z,6.79
2019-04-21T00:14:03.645Z,6.82
2019-04-21T00:16:32.113Z,6.85
2019-04-21T00:19:21.159Z,6.89
2019-04-21T00:21:55.462Z,6.86
2019-04-21T00:24:39.846Z,6.86
2019-04-21T00:27:18.754Z,6.84
2019-04-21T00:29:51.862Z,6.75
2019-04-21T00:32:22.226Z,6.75
2019-04-21T00:34:41.100Z,6.75
2019-04-21T00:37:25.973Z,6.72
2019-04-21T00:40:09.451Z,6.58
2019-04-21T00:42:40.284Z,6.44
2019-04-21T00:45:07.899Z,6.43
2019-04-21T00:47:46.265Z,6.41
2019-04-21T00:50:34.492Z,6.41
2019-04-21T00:53:24.597Z,6.41
2019-04-21T00:55:59.053Z,6.42
2019-04-21T00:58:33.164Z,6.42
2019-04-21T01:01:04.469Z,6.41
2019-04-21T01:03:42.687Z,6.41
2019-04-21T01:06:19.141Z,6.39
2019-04-21T01:08:45.803Z,6.40
2019-04-21T01:11:23.928Z,6.43
2019-04-21T01:14:05.488Z,6.39
2019-04-21T01:16:33.544Z,6.41
2019-04-21T01:19:06.602Z,6.42
2019-04-21T01:21:21.061Z,6.40
2019-04-21T01:24:03.054Z,6.38
2019-04-21T01:26:43.011Z,6.36
2019-04-21T01:29:20.494Z,6.35
2019-04-21T01:32:08.569Z,6.35
2019-04-21T01:34:33.005Z,6.31
2019-04-21T01:37:05.709Z,6.28
2019-04-21T01:39:51.573Z,6.23
2019-04-21T01:42:18.884Z,5.82
2019-04-21T01:44:52.278Z,6.09
2019-04-21T01:47:20.177Z,6.07
2019-04-21T01:49:52.767Z,6.00
2019-04-21T01:52:43.862Z,5.89
2019-04-21T01:55:25.086Z,5.82
2019-04-21T01:58:03.288Z,5.82
2019-04-21T02:00:51.865Z,5.82
2019-04-21T02:03:46.986Z,5.81
2019-04-21T02:06:11.099Z,5.76
2019-04-21T02:08:41.824Z,5.69
2019-04-21T02:11:17.657Z,5.58
2019-04-21T02:14:00.423Z,5.47
2019-04-21T02:16:31.038Z,5.42
2019-04-21T02:18:54.502Z,5.32
2019-04-21T02:21:32.921Z,5.21
2019-04-21T02:24:16.976Z,5.22
2019-04-21T02:26:45.717Z,5.24
2019-04-21T02:29:20.672Z,5.25
2019-04-21T02:37:47.253Z,5.28
2019-04-21T02:39:49.525Z,5.29
2019-04-21T02:42:22.265Z,5.28
2019-04-21T02:55:11.737Z,5.08
2019-04-21T02:57:59.511Z,5.07
2019-04-21T03:00:33.248Z,5.06
2019-04-21T03:03:14.084Z,4.95
2019-04-21T03:06:12.797Z,4.92
2019-04-21T03:08:50.086Z,4.93
2019-04-21T03:11:25.153Z,4.92
2019-04-21T03:14:05.927Z,4.89
2019-04-21T03:21:38.697Z,4.70
2019-04-21T03:24:31.242Z,4.67
2019-04-21T03:27:03.511Z,4.62
2019-04-21T03:29:19.717Z,4.43
2019-04-21T03:32:28.310Z,4.35
2019-04-21T03:39:47.938Z,4.25
2019-04-21T03:42:19.684Z,4.25
2019-04-21T03:44:46.032Z,4.21
2019-04-21T03:47:22.852Z,4.18
2019-04-21T03:53:00.650Z,4.16
2019-04-21T03:55:48.698Z,4.18
2019-04-21T03:58:26.220Z,4.19
2019-04-21T04:03:53.805Z,4.21
2019-04-21T04:09:19.432Z,4.22
2019-04-21T04:11:53.007Z,4.23
2019-04-21T04:17:04.787Z,4.13
2019-04-21T04:19:39.410Z,4.12
2019-04-21T04:22:14.297Z,4.14
2019-04-21T04:24:49.680Z,4.19
2019-04-21T04:27:26.192Z,4.22
2019-04-21T04:29:54.438Z,4.24
2019-04-21T04:32:29.270Z,4.26
2019-04-21T04:35:03.457Z,4.29
2019-04-21T04:40:26.837Z,4.40
2019-04-21T04:42:58.450Z,4.47
2019-04-21T04:45:46.625Z,4.54
2019-04-21T04:50:49.381Z,4.72
2019-04-21T04:55:55.764Z,4.78
2019-04-21T04:58:56.404Z,4.88
2019-04-21T05:01:14.776Z,4.99
2019-04-21T05:09:09.440Z,5.50
2019-04-21T05:14:18.370Z,5.56
2019-04-21T05:16:46.285Z,5.57
2019-04-21T05:21:45.586Z,5.76
2019-04-21T05:24:21.508Z,5.92
2019-04-21T05:26:49.417Z,6.02
2019-04-21T05:29:47.204Z,6.17
2019-04-21T05:32:26.439Z,6.38
2019-04-21T05:35:07.673Z,6.57
2019-04-21T05:37:54.800Z,6.69
2019-04-21T05:40:27.397Z,6.80
2019-04-21T05:43:12.418Z,6.93
2019-04-21T05:45:47.741Z,7.03
2019-04-21T05:50:59.150Z,7.17
2019-04-21T05:53:53.479Z,7.24
2019-04-21T05:56:08.830Z,7.31
2019-04-21T05:58:46.319Z,7.44
2019-04-21T06:01:24.382Z,7.60
2019-04-21T06:04:01.705Z,7.73
2019-04-21T06:09:00.326Z,8.15
2019-04-21T06:11:40.697Z,8.35
2019-04-21T06:14:18.312Z,8.49
2019-04-21T06:16:49.422Z,8.63
2019-04-21T06:19:31.200Z,8.83
2019-04-21T06:21:51.254Z,9.05
2019-04-21T06:24:30.195Z,9.22
2019-04-21T06:27:11.702Z,9.39
2019-04-21T06:29:45.207Z,9.49
2019-04-21T06:35:13.035Z,9.85
2019-04-21T06:40:15.170Z,9.98
2019-04-21T06:42:40.536Z,10.17
2019-04-21T06:45:20.482Z,10.35
2019-04-21T06:48:01.034Z,10.55
2019-04-21T06:50:35.339Z,10.80
2019-04-21T06:53:05.601Z,11.20
2019-04-21T06:55:37.013Z,11.20
2019-04-21T06:58:10.225Z,11.69
2019-04-21T07:00:41.377Z,11.89
2019-04-21T07:05:56.090Z,12.29
2019-04-21T07:08:34.627Z,12.47
2019-04-21T07:11:04.303Z,12.57
2019-04-21T07:13:36.376Z,12.74
2019-04-21T07:16:25.688Z,12.74
2019-04-21T07:19:09.799Z,12.99
2019-04-21T07:21:41.323Z,13.01
2019-04-21T07:24:21.596Z,13.20
2019-04-21T07:26:51.019Z,13.34
2019-04-21T07:29:27.197Z,13.61
2019-04-21T07:34:48.000Z,13.95
2019-04-21T07:37:06.233Z,14.04
2019-04-21T07:39:45.202Z,13.94
2019-04-21T07:42:22.357Z,14.08
2019-04-21T07:44:55.315Z,14.19
2019-04-21T07:47:51.798Z,14.30
2019-04-21T07:50:38.572Z,14.56
2019-04-21T07:53:22.237Z,14.53
2019-04-21T07:55:34.239Z,14.83
2019-04-21T07:58:29.902Z,15.02
2019-04-21T08:01:07.497Z,15.30
2019-04-21T08:03:38.708Z,15.16
2019-04-21T08:06:12.265Z,15.26
2019-04-21T08:08:48.984Z,15.56
2019-04-21T08:11:21.123Z,15.43
2019-04-21T08:13:57.339Z,15.54
2019-04-21T08:16:35.033Z,15.78
2019-04-21T08:19:11.488Z,15.78
2019-04-21T08:21:42.010Z,15.92
2019-04-21T08:24:22.568Z,15.95
2019-04-21T08:26:58.600Z,15.97
2019-04-21T08:29:33.195Z,16.15
2019-04-21T08:32:16.061Z,16.31
2019-04-21T08:34:55.156Z,16.39
2019-04-21T08:37:29.537Z,16.58
2019-04-21T08:40:05.004Z,16.46
2019-04-21T08:42:30.469Z,16.37
2019-04-21T08:45:07.680Z,16.42
2019-04-21T08:47:59.150Z,16.69
2019-04-21T08:50:33.918Z,16.91
2019-04-21T08:53:08.069Z,16.87
2019-04-21T08:59:13.853Z,16.97
2019-04-21T09:01:53.221Z,17.38
2019-04-21T09:04:26.252Z,17.44
2019-04-21T09:09:44.509Z,17.83
2019-04-21T09:12:17.690Z,18.11
2019-04-21T09:14:50.256Z,18.65
2019-04-21T09:17:23.612Z,18.87
2019-04-21T09:20:07.774Z,18.67
2019-04-21T09:22:38.226Z,18.86
2019-04-21T09:25:16.235Z,19.01
2019-04-21T09:27:42.046Z,19.08
2019-04-21T09:30:08.936Z,19.45
2019-04-21T09:32:44.626Z,19.60
2019-04-21T09:35:19.130Z,19.71
2019-04-21T09:38:00.234Z,19.75
2019-04-21T09:40:32.671Z,19.68
2019-04-21T09:43:08.524Z,19.97
2019-04-21T09:45:38.989Z,20.05
2019-04-21T09:48:55.466Z,20.25
2019-04-21T09:51:41.612Z,20.51
2019-04-21T09:54:24.791Z,20.69
2019-04-21T09:56:59.909Z,20.47
2019-04-21T09:59:34.677Z,20.60
2019-04-21T10:02:11.864Z,20.54
2019-04-21T10:04:43.559Z,20.56
2019-04-21T10:07:27.505Z,20.76
2019-04-21T10:09:52.417Z,20.54
2019-04-21T10:12:34.976Z,20.77
2019-04-21T10:15:24.590Z,21.10
2019-04-21T10:18:07.012Z,21.37
2019-04-21T10:20:40.752Z,21.46
2019-04-21T10:23:15.643Z,21.70
2019-04-21T10:25:52.549Z,21.24
2019-04-21T10:28:28.829Z,21.34
2019-04-21T10:31:06.827Z,21.68
2019-04-21T10:33:44.652Z,21.70
2019-04-21T10:36:20.793Z,21.99
2019-04-21T10:38:55.751Z,22.22
2019-04-21T10:41:29.813Z,21.39
2019-04-21T10:44:05.084Z,21.82
2019-04-21T10:46:38.968Z,21.94
2019-04-21T10:49:13.179Z,22.26
2019-04-21T10:51:50.749Z,21.88
2019-04-21T10:57:12.497Z,22.13
2019-04-21T10:59:48.965Z,21.36
2019-04-21T11:02:33.228Z,21.87
2019-04-21T11:05:14.555Z,21.82
2019-04-21T11:08:07.657Z,21.46
2019-04-21T11:10:38.335Z,21.67
2019-04-21T11:13:44.290Z,22.09
2019-04-21T11:16:08.745Z,22.26
2019-04-21T11:18:44.010Z,22.47
2019-04-21T11:21:29.189Z,21.90
2019-04-21T11:26:35.911Z,22.42
2019-04-21T11:29:07.469Z,22.22
2019-04-21T11:31:41.041Z,21.98
2019-04-21T11:34:16.350Z,21.93
2019-04-21T11:36:50.251Z,22.23
2019-04-21T11:39:35.292Z,22.11
2019-04-21T11:42:01.942Z,22.11
2019-04-21T11:44:35.352Z,22.09
2019-04-21T11:47:16.350Z,22.27
2019-04-21T11:49:49.699Z,21.74
2019-04-21T11:52:22.999Z,22.06
2019-04-21T11:54:58.580Z,22.36
2019-04-21T11:57:36.497Z,22.31
2019-04-21T12:00:21.787Z,21.94
2019-04-21T12:02:57.620Z,22.42
2019-04-21T12:05:29.805Z,22.29
2019-04-21T12:08:02.173Z,22.03
2019-04-21T12:10:33.800Z,21.94
2019-04-21T12:13:10.405Z,22.06
2019-04-21T12:15:45.082Z,22.32
2019-04-21T12:18:19.782Z,21.88
2019-04-21T12:20:55.678Z,21.96
2019-04-21T12:23:27.590Z,22.11
2019-04-21T12:26:03.166Z,22.30
2019-04-21T12:28:46.426Z,22.29
2019-04-21T12:31:37.386Z,22.61
2019-04-21T12:34:12.435Z,22.42
2019-04-21T12:36:46.488Z,22.52
2019-04-21T12:39:27.095Z,22.50
2019-04-21T12:41:58.938Z,22.67
2019-04-21T12:44:33.591Z,22.65
2019-04-21T12:47:32.085Z,22.69
2019-04-21T12:50:08.622Z,22.62
2019-04-21T12:52:41.980Z,22.66
2019-04-21T12:55:18.122Z,22.62
2019-04-21T12:57:55.229Z,22.66
2019-04-21T13:00:33.363Z,22.80
2019-04-21T13:03:14.182Z,22.89
2019-04-21T13:06:09.760Z,23.16
2019-04-21T13:09:03.397Z,23.24
2019-04-21T13:15:33.547Z,23.23
2019-04-21T13:18:10.215Z,23.09
2019-04-21T13:20:48.450Z,22.89
2019-04-21T13:23:32.513Z,22.76
2019-04-21T13:26:09.701Z,23.18
2019-04-21T13:28:45.758Z,23.12
2019-04-21T13:31:22.401Z,22.90
2019-04-21T13:34:10.331Z,22.98
2019-04-21T13:36:45.538Z,22.92
2019-04-21T13:40:03.434Z,22.93
2019-04-21T13:42:23.714Z,23.04
2019-04-21T13:44:46.680Z,23.16
2019-04-21T13:47:22.824Z,22.86
2019-04-21T13:49:56.443Z,23.08
2019-04-21T13:52:33.440Z,22.98
2019-04-21T13:55:21.343Z,23.08
2019-04-21T13:57:56.750Z,23.00
2019-04-21T14:03:07.235Z,23.18
2019-04-21T14:05:46.387Z,23.28
2019-04-21T14:08:37.239Z,23.11
2019-04-21T14:11:13.350Z,22.97
2019-04-21T14:16:24.470Z,23.03
2019-04-21T14:18:57.390Z,23.00
2019-04-21T14:21:33.667Z,23.11
2019-04-21T14:29:33.530Z,22.65
2019-04-21T14:32:08.401Z,22.56
2019-04-21T14:34:56.615Z,22.61
2019-04-21T14:37:44.528Z,22.67
2019-04-21T14:46:11.059Z,22.44
2019-04-21T14:49:19.453Z,22.37
2019-04-21T14:54:50.974Z,22.46
2019-04-21T14:57:34.651Z,22.53
2019-04-21T15:00:15.366Z,22.35
2019-04-21T15:02:51.764Z,22.29
2019-04-21T15:05:35.551Z,22.31
2019-04-21T15:10:56.764Z,22.24
2019-04-21T15:13:30.208Z,22.18
2019-04-21T15:16:08.898Z,22.16
2019-04-21T15:18:46.537Z,22.10
2019-04-21T15:21:23.621Z,21.97
2019-04-21T15:24:02.566Z,21.99
2019-04-21T15:29:12.963Z,21.92
2019-04-21T15:31:46.682Z,21.90
2019-04-21T15:34:22.533Z,21.84
2019-04-21T15:37:24.121Z,21.84
2019-04-21T15:42:38.907Z,21.73
2019-04-21T15:45:21.015Z,21.72
2019-04-21T15:47:55.956Z,21.75
2019-04-21T15:50:35.736Z,21.60
2019-04-21T15:53:11.794Z,21.56
2019-04-21T15:56:04.652Z,21.60
2019-04-21T15:58:52.563Z,21.59
2019-04-21T16:01:52.525Z,21.53
2019-04-21T16:07:03.757Z,21.48
2019-04-21T16:09:39.991Z,21.39
2019-04-21T16:12:15.995Z,21.24
2019-04-21T16:14:47.982Z,21.22
2019-04-21T16:17:35.228Z,21.21
2019-04-21T16:20:19.799Z,21.17
2019-04-21T16:22:48.838Z,21.04
2019-04-21T16:25:24.690Z,21.05
2019-04-21T16:27:59.467Z,21.09
2019-04-21T16:30:31.753Z,20.99
2019-04-21T16:33:12.255Z,20.89
2019-04-21T16:35:42.240Z,20.83
2019-04-21T16:38:17.832Z,20.68
2019-04-21T16:41:03.312Z,20.65
2019-04-21T16:43:31.124Z,20.63
2019-04-21T16:46:04.679Z,20.63
2019-04-21T16:48:37.811Z,20.54
2019-04-21T16:51:10.775Z,20.55
2019-04-21T16:53:57.781Z,20.40
2019-04-21T16:56:54.079Z,20.38
2019-04-21T16:59:36.772Z,20.21
2019-04-21T17:02:10.470Z,20.15
2019-04-21T17:04:42.540Z,20.04
2019-04-21T17:07:28.696Z,19.95
2019-04-21T17:09:56.885Z,19.85
2019-04-21T17:12:39.488Z,19.74
2019-04-21T17:15:34.128Z,19.77
2019-04-21T17:18:06.393Z,19.63
2019-04-21T17:20:35.695Z,19.49
2019-04-21T17:22:57.955Z,19.37
2019-04-21T17:25:32.104Z,19.27
2019-04-21T17:28:05.938Z,19.22
2019-04-21T17:30:37.709Z,19.19
2019-04-21T17:33:16.220Z,19.02
2019-04-21T17:35:45.130Z,18.91
2019-04-21T17:38:18.477Z,18.84
2019-04-21T17:40:49.992Z,18.71
2019-04-21T17:43:23.740Z,18.58
2019-04-21T17:45:55.677Z,18.48
2019-04-21T17:48:29.313Z,18.35
2019-04-21T17:51:40.603Z,18.25
2019-04-21T17:54:32.167Z,18.20
2019-04-21T17:57:23.147Z,18.13
2019-04-21T18:02:35.437Z,17.82
2019-04-21T18:05:08.670Z,17.65
2019-04-21T18:07:45.330Z,17.58
2019-04-21T18:10:07.328Z,17.47
2019-04-21T18:12:43.647Z,17.36
2019-04-21T18:15:41.917Z,17.26
2019-04-21T18:18:08.347Z,17.16
2019-04-21T18:20:44.006Z,17.15
2019-04-21T18:24:02.800Z,17.00
2019-04-21T18:26:39.461Z,16.85
2019-04-21T18:29:01.264Z,16.73
2019-04-21T18:31:44.560Z,16.57
2019-04-21T18:34:37.905Z,16.51
2019-04-21T18:37:17.427Z,16.44
2019-04-21T18:40:01.653Z,16.43
2019-04-21T18:42:46.416Z,16.38
2019-04-21T18:48:26.905Z,15.99
2019-04-21T18:51:12.341Z,15.82
2019-04-21T18:54:32.475Z,15.66
2019-04-21T18:56:52.288Z,15.53
2019-04-21T18:59:22.885Z,15.37
2019-04-21T19:02:02.111Z,15.11
2019-04-21T19:04:33.106Z,14.91
2019-04-21T19:07:17.987Z,14.73
2019-04-21T19:10:14.186Z,14.53
2019-04-21T19:15:07.675Z,14.16
2019-04-21T19:22:52.266Z,13.96
2019-04-21T19:25:25.847Z,13.90
2019-04-21T19:28:04.619Z,13.84
2019-04-21T19:30:49.676Z,13.79
2019-04-21T19:33:14.443Z,13.72
2019-04-21T19:35:35.281Z,13.64
2019-04-21T19:38:12.292Z,13.60
2019-04-21T19:41:00.225Z,13.59
2019-04-21T19:43:41.707Z,13.59
2019-04-21T19:46:10.048Z,13.62
2019-04-21T19:48:55.354Z,13.57
2019-04-21T19:51:18.106Z,13.47
2019-04-21T19:53:47.814Z,13.38
2019-04-21T19:56:12.062Z,13.32
2019-04-21T19:58:46.978Z,13.30
2019-04-21T20:01:19.757Z,13.32
2019-04-21T20:03:57.110Z,13.27
2019-04-21T20:06:44.699Z,13.20
2019-04-21T20:09:19.127Z,13.12
2019-04-21T20:11:52.240Z,13.06
2019-04-21T20:14:46.746Z,13.18
2019-04-21T20:16:59.344Z,13.17
2019-04-21T20:19:22.530Z,13.16
2019-04-21T20:21:56.952Z,13.04
2019-04-21T20:24:32.462Z,12.99
2019-04-21T20:27:11.381Z,12.91
2019-04-21T20:29:57.679Z,12.89
2019-04-21T20:32:34.710Z,12.83
2019-04-21T20:35:15.559Z,12.84
2019-04-21T20:37:39.244Z,12.75
2019-04-21T20:40:04.393Z,12.71
2019-04-21T20:42:47.131Z,12.52
2019-04-21T20:45:34.850Z,12.44
2019-04-21T20:47:46.788Z,12.29
2019-04-21T20:50:29.843Z,12.26
2019-04-21T20:53:11.268Z,12.26
2019-04-21T20:55:43.101Z,12.23
2019-04-21T20:58:06.661Z,12.24
2019-04-21T21:00:55.849Z,12.12
2019-04-21T21:03:25.540Z,11.95
2019-04-21T21:05:54.354Z,11.80
2019-04-21T21:08:35.991Z,11.66
2019-04-21T21:11:06.891Z,11.53
2019-04-21T21:13:49.236Z,11.40
2019-04-21T21:16:20.142Z,11.25
2019-04-21T21:19:15.719Z,11.13
2019-04-21T21:21:32.479Z,11.04
2019-04-21T21:24:05.432Z,10.94
2019-04-21T21:26:36.912Z,10.97
2019-04-21T21:29:02.952Z,11.04
2019-04-21T21:31:50.506Z,11.17
2019-04-21T21:34:21.177Z,11.20
2019-04-21T21:36:57.086Z,10.95
2019-04-21T21:39:36.142Z,10.95
2019-04-21T21:41:50.964Z,10.84
2019-04-21T21:44:23.646Z,10.66
2019-04-21T21:47:06.476Z,10.66
2019-04-21T21:49:47.074Z,10.55
2019-04-21T21:52:12.833Z,10.44
2019-04-21T21:54:41.728Z,10.32
2019-04-21T21:57:16.454Z,10.25
2019-04-21T21:59:51.724Z,10.13
2019-04-21T22:02:32.009Z,10.13
2019-04-21T22:05:05.279Z,10.02
2019-04-21T22:07:33.158Z,10.02
2019-04-21T22:10:06.519Z,9.92
2019-04-21T22:12:48.532Z,9.92
2019-04-21T22:15:18.906Z,9.86
2019-04-21T22:18:07.399Z,9.77
2019-04-21T22:20:43.237Z,9.73
2019-04-21T22:23:04.007Z,9.69
2019-04-21T22:25:34.779Z,9.59
2019-04-21T22:28:05.600Z,9.59
2019-04-21T22:30:42.715Z,9.43
2019-04-21T22:33:17.518Z,9.26
2019-04-21T22:35:54.246Z,9.26
2019-04-21T22:38:42.617Z,9.22
2019-04-21T22:41:14.400Z,9.13
2019-04-21T22:43:43.385Z,9.10
2019-04-21T22:46:15.462Z,9.10
2019-04-21T22:48:53.261Z,9.06
2019-04-21T22:51:35.433Z,9.04
2019-04-21T22:53:59.959Z,9.00
2019-04-21T22:56:36.110Z,8.95
2019-04-21T22:59:15.026Z,8.91
2019-04-21T23:01:49.928Z,8.85
2019-04-21T23:04:21.005Z,8.79
2019-04-21T23:06:56.676Z,8.66
2019-04-21T23:09:28.864Z,8.54
2019-04-21T23:12:03.585Z,8.48
2019-04-21T23:14:47.436Z,8.44
2019-04-21T23:17:32.328Z,8.44
2019-04-21T23:20:13.290Z,8.44
2019-04-21T23:22:54.977Z,8.37
2019-04-21T23:25:18.218Z,8.32
2019-04-21T23:27:46.996Z,8.31
2019-04-21T23:30:33.155Z,8.27
2019-04-21T23:32:52.684Z,8.24
2019-04-21T23:35:27.782Z,8.24
2019-04-21T23:37:58.608Z,8.23
2019-04-21T23:40:29.183Z,8.18
2019-04-21T23:43:10.678Z,8.16
2019-04-21T23:45:40.887Z,8.12
2019-04-21T23:48:23.796Z,8.12
2019-04-21T23:50:53.970Z,8.11
2019-04-21T23:53:19.600Z,8.10
2019-04-21T23:55:52.822Z,8.09
2019-04-21T23:58:27.944Z,8.06
